sensor_id;sensor_type;location;lat;lon;timestamp;P1;durP1;ratioP1;P2;durP2;ratioP2
24259;SDS011;12384;48.112;18.418;2022-09-24T00:02:04;15.73;;;14.63;;
24259;SDS011;12384;48.112;18.418;2022-09-24T00:04:32;15.07;;;14.07;;
24259;SDS011;12384;48.112;18.418;2022-09-24T00:07:01;16.87;;;15.67;;
24259;SDS011;12384;48.112;18.418;2022-09-24T00:09:29;16.63;;;15.43;;
24259;SDS011;12384;48.112;18.418;2022-09-24T00:11:57;17.27;;;15.90;;
24259;SDS011;12384;48.112;18.418;2022-09-24T00:14:28;16.37;;;15.17;;
24259;SDS011;12384;48.112;18.418;2022-09-24T00:16:57;16.73;;;15.50;;
24259;SDS011;12384;48.112;18.418;2022-09-24T00:19:26;15.77;;;14.67;;
24259;SDS011;12384;48.112;18.418;2022-09-24T00:21:54;16.37;;;15.27;;
24259;SDS011;12384;48.112;18.418;2022-09-24T00:24:22;17.23;;;15.93;;
24259;SDS011;12384;48.112;18.418;2022-09-24T00:27:08;15.73;;;14.73;;
24259;SDS011;12384;48.112;18.418;2022-09-24T00:29:37;16.77;;;15.57;;
24259;SDS011;12384;48.112;18.418;2022-09-24T00:32:06;16.40;;;15.20;;
24259;SDS011;12384;48.112;18.418;2022-09-24T00:34:35;16.23;;;15.13;;
24259;SDS011;12384;48.112;18.418;2022-09-24T00:37:04;16.10;;;15.00;;
24259;SDS011;12384;48.112;18.418;2022-09-24T00:39:32;17.53;;;15.93;;
24259;SDS011;12384;48.112;18.418;2022-09-24T00:42:00;16.63;;;15.43;;
24259;SDS011;12384;48.112;18.418;2022-09-24T00:44:48;15.97;;;14.87;;
24259;SDS011;12384;48.112;18.418;2022-09-24T00:47:24;16.40;;;15.30;;
24259;SDS011;12384;48.112;18.418;2022-09-24T00:49:59;16.60;;;15.33;;
24259;SDS011;12384;48.112;18.418;2022-09-24T00:52:34;16.03;;;14.93;;
24259;SDS011;12384;48.112;18.418;2022-09-24T00:55:06;17.60;;;16.40;;
24259;SDS011;12384;48.112;18.418;2022-09-24T00:57:36;17.70;;;16.30;;
24259;SDS011;12384;48.112;18.418;2022-09-24T01:00:07;17.03;;;15.87;;
24259;SDS011;12384;48.112;18.418;2022-09-24T01:02:38;17.63;;;16.33;;
24259;SDS011;12384;48.112;18.418;2022-09-24T01:05:11;17.77;;;16.47;;
24259;SDS011;12384;48.112;18.418;2022-09-24T01:07:39;17.20;;;16.00;;
24259;SDS011;12384;48.112;18.418;2022-09-24T01:10:08;16.77;;;15.57;;
24259;SDS011;12384;48.112;18.418;2022-09-24T01:12:39;17.00;;;15.80;;
24259;SDS011;12384;48.112;18.418;2022-09-24T01:15:17;15.67;;;14.57;;
24259;SDS011;12384;48.112;18.418;2022-09-24T01:17:56;15.60;;;14.50;;
24259;SDS011;12384;48.112;18.418;2022-09-24T01:20:49;16.80;;;15.60;;
24259;SDS011;12384;48.112;18.418;2022-09-24T01:32:10;18.07;;;16.63;;
24259;SDS011;12384;48.112;18.418;2022-09-24T01:34:45;17.43;;;16.13;;
24259;SDS011;12384;48.112;18.418;2022-09-24T01:37:16;15.73;;;14.63;;
24259;SDS011;12384;48.112;18.418;2022-09-24T01:39:48;16.67;;;15.47;;
24259;SDS011;12384;48.112;18.418;2022-09-24T01:42:20;16.67;;;15.50;;
24259;SDS011;12384;48.112;18.418;2022-09-24T01:44:51;16.33;;;15.23;;
24259;SDS011;12384;48.112;18.418;2022-09-24T01:47:22;17.07;;;15.83;;
24259;SDS011;12384;48.112;18.418;2022-09-24T01:50:00;15.90;;;14.80;;
24259;SDS011;12384;48.112;18.418;2022-09-24T01:52:30;17.03;;;15.77;;
24259;SDS011;12384;48.112;18.418;2022-09-24T01:55:05;17.10;;;15.80;;
24259;SDS011;12384;48.112;18.418;2022-09-24T01:57:37;16.37;;;15.27;;
24259;SDS011;12384;48.112;18.418;2022-09-24T02:00:11;15.93;;;14.83;;
24259;SDS011;12384;48.112;18.418;2022-09-24T02:02:42;17.20;;;15.80;;
24259;SDS011;12384;48.112;18.418;2022-09-24T02:05:15;16.47;;;15.27;;
24259;SDS011;12384;48.112;18.418;2022-09-24T02:07:49;16.30;;;15.10;;
24259;SDS011;12384;48.112;18.418;2022-09-24T02:10:23;15.67;;;14.60;;
24259;SDS011;12384;48.112;18.418;2022-09-24T02:12:54;14.93;;;13.93;;
24259;SDS011;12384;48.112;18.418;2022-09-24T02:15:27;14.87;;;13.77;;
24259;SDS011;12384;48.112;18.418;2022-09-24T02:18:03;15.00;;;14.00;;
24259;SDS011;12384;48.112;18.418;2022-09-24T02:20:35;15.20;;;14.17;;
24259;SDS011;12384;48.112;18.418;2022-09-24T02:23:06;14.37;;;13.47;;
24259;SDS011;12384;48.112;18.418;2022-09-24T02:25:38;14.50;;;13.60;;
24259;SDS011;12384;48.112;18.418;2022-09-24T02:28:09;14.37;;;13.47;;
24259;SDS011;12384;48.112;18.418;2022-09-24T02:30:40;15.60;;;14.50;;
24259;SDS011;12384;48.112;18.418;2022-09-24T02:33:13;15.80;;;14.67;;
24259;SDS011;12384;48.112;18.418;2022-09-24T02:36:00;15.40;;;14.30;;
24259;SDS011;12384;48.112;18.418;2022-09-24T02:38:29;15.67;;;14.50;;
24259;SDS011;12384;48.112;18.418;2022-09-24T02:40:57;16.20;;;15.00;;
24259;SDS011;12384;48.112;18.418;2022-09-24T02:43:26;14.90;;;13.90;;
24259;SDS011;12384;48.112;18.418;2022-09-24T02:45:55;15.40;;;14.40;;
24259;SDS011;12384;48.112;18.418;2022-09-24T02:48:23;15.77;;;14.67;;
24259;SDS011;12384;48.112;18.418;2022-09-24T02:50:52;15.40;;;14.30;;
24259;SDS011;12384;48.112;18.418;2022-09-24T02:53:20;15.70;;;14.60;;
24259;SDS011;12384;48.112;18.418;2022-09-24T02:55:48;15.00;;;13.90;;
24259;SDS011;12384;48.112;18.418;2022-09-24T02:58:17;15.53;;;14.53;;
24259;SDS011;12384;48.112;18.418;2022-09-24T03:00:45;15.60;;;14.50;;
24259;SDS011;12384;48.112;18.418;2022-09-24T03:03:15;15.87;;;14.77;;
24259;SDS011;12384;48.112;18.418;2022-09-24T03:05:43;15.37;;;14.30;;
24259;SDS011;12384;48.112;18.418;2022-09-24T03:08:12;16.13;;;14.93;;
24259;SDS011;12384;48.112;18.418;2022-09-24T03:10:40;16.00;;;15.00;;
24259;SDS011;12384;48.112;18.418;2022-09-24T03:13:09;15.63;;;14.53;;
24259;SDS011;12384;48.112;18.418;2022-09-24T03:15:37;15.30;;;14.30;;
24259;SDS011;12384;48.112;18.418;2022-09-24T03:18:06;14.90;;;13.90;;
24259;SDS011;12384;48.112;18.418;2022-09-24T03:20:35;15.87;;;14.77;;
24259;SDS011;12384;48.112;18.418;2022-09-24T03:23:04;15.47;;;14.47;;
24259;SDS011;12384;48.112;18.418;2022-09-24T03:25:32;17.63;;;15.93;;
24259;SDS011;12384;48.112;18.418;2022-09-24T03:28:01;16.60;;;15.50;;
24259;SDS011;12384;48.112;18.418;2022-09-24T03:30:29;17.17;;;15.87;;
24259;SDS011;12384;48.112;18.418;2022-09-24T03:33:14;15.87;;;14.67;;
24259;SDS011;12384;48.112;18.418;2022-09-24T03:35:44;16.60;;;15.50;;
24259;SDS011;12384;48.112;18.418;2022-09-24T03:38:12;15.90;;;14.80;;
24259;SDS011;12384;48.112;18.418;2022-09-24T03:40:40;15.70;;;14.60;;
24259;SDS011;12384;48.112;18.418;2022-09-24T03:43:09;15.53;;;14.43;;
24259;SDS011;12384;48.112;18.418;2022-09-24T03:45:37;15.87;;;14.77;;
24259;SDS011;12384;48.112;18.418;2022-09-24T03:48:05;15.87;;;14.77;;
24259;SDS011;12384;48.112;18.418;2022-09-24T03:50:34;17.80;;;16.37;;
24259;SDS011;12384;48.112;18.418;2022-09-24T03:53:04;16.20;;;15.10;;
24259;SDS011;12384;48.112;18.418;2022-09-24T03:55:32;16.40;;;15.30;;
24259;SDS011;12384;48.112;18.418;2022-09-24T03:58:01;15.27;;;14.20;;
24259;SDS011;12384;48.112;18.418;2022-09-24T04:00:29;16.83;;;15.63;;
24259;SDS011;12384;48.112;18.418;2022-09-24T04:03:00;16.63;;;15.53;;
24259;SDS011;12384;48.112;18.418;2022-09-24T04:05:29;16.90;;;15.80;;
24259;SDS011;12384;48.112;18.418;2022-09-24T04:07:59;16.97;;;15.87;;
24259;SDS011;12384;48.112;18.418;2022-09-24T04:10:29;17.80;;;16.37;;
24259;SDS011;12384;48.112;18.418;2022-09-24T04:12:58;16.03;;;14.93;;
24259;SDS011;12384;48.112;18.418;2022-09-24T04:15:26;16.87;;;15.57;;
24259;SDS011;12384;48.112;18.418;2022-09-24T04:17:55;16.40;;;15.30;;
24259;SDS011;12384;48.112;18.418;2022-09-24T04:20:25;21.90;;;20.00;;
24259;SDS011;12384;48.112;18.418;2022-09-24T04:22:56;19.77;;;18.27;;
24259;SDS011;12384;48.112;18.418;2022-09-24T04:25:26;18.30;;;17.00;;
24259;SDS011;12384;48.112;18.418;2022-09-24T04:27:58;18.30;;;16.90;;
24259;SDS011;12384;48.112;18.418;2022-09-24T04:30:28;18.17;;;16.77;;
24259;SDS011;12384;48.112;18.418;2022-09-24T04:32:59;18.30;;;17.00;;
24259;SDS011;12384;48.112;18.418;2022-09-24T04:35:29;18.47;;;16.97;;
24259;SDS011;12384;48.112;18.418;2022-09-24T04:38:00;18.57;;;17.07;;
24259;SDS011;12384;48.112;18.418;2022-09-24T04:40:30;18.23;;;16.93;;
24259;SDS011;12384;48.112;18.418;2022-09-24T04:42:59;17.50;;;16.30;;
24259;SDS011;12384;48.112;18.418;2022-09-24T04:45:28;17.63;;;16.37;;
24259;SDS011;12384;48.112;18.418;2022-09-24T04:47:57;17.83;;;16.63;;
24259;SDS011;12384;48.112;18.418;2022-09-24T04:50:26;18.17;;;16.87;;
24259;SDS011;12384;48.112;18.418;2022-09-24T04:52:59;17.47;;;16.27;;
24259;SDS011;12384;48.112;18.418;2022-09-24T04:55:27;16.93;;;15.73;;
24259;SDS011;12384;48.112;18.418;2022-09-24T04:57:59;17.67;;;16.47;;
24259;SDS011;12384;48.112;18.418;2022-09-24T05:00:27;17.63;;;16.33;;
24259;SDS011;12384;48.112;18.418;2022-09-24T05:02:59;16.93;;;15.73;;
24259;SDS011;12384;48.112;18.418;2022-09-24T05:05:30;16.73;;;15.43;;
24259;SDS011;12384;48.112;18.418;2022-09-24T05:07:59;15.63;;;14.53;;
24259;SDS011;12384;48.112;18.418;2022-09-24T05:10:29;16.83;;;15.57;;
24259;SDS011;12384;48.112;18.418;2022-09-24T05:13:00;16.60;;;15.50;;
24259;SDS011;12384;48.112;18.418;2022-09-24T05:15:28;16.60;;;15.50;;
24259;SDS011;12384;48.112;18.418;2022-09-24T05:17:56;16.07;;;15.07;;
24259;SDS011;12384;48.112;18.418;2022-09-24T05:20:25;17.40;;;16.20;;
24259;SDS011;12384;48.112;18.418;2022-09-24T05:22:53;16.90;;;15.80;;
24259;SDS011;12384;48.112;18.418;2022-09-24T05:25:22;16.77;;;15.57;;
24259;SDS011;12384;48.112;18.418;2022-09-24T05:27:51;17.33;;;15.93;;
24259;SDS011;12384;48.112;18.418;2022-09-24T05:30:21;17.13;;;16.00;;
24259;SDS011;12384;48.112;18.418;2022-09-24T05:32:51;15.90;;;14.80;;
24259;SDS011;12384;48.112;18.418;2022-09-24T05:35:20;15.87;;;14.67;;
24259;SDS011;12384;48.112;18.418;2022-09-24T05:37:49;16.20;;;15.07;;
24259;SDS011;12384;48.112;18.418;2022-09-24T05:40:19;15.97;;;14.93;;
24259;SDS011;12384;48.112;18.418;2022-09-24T05:43:06;15.70;;;14.60;;
24259;SDS011;12384;48.112;18.418;2022-09-24T05:45:36;15.90;;;14.80;;
24259;SDS011;12384;48.112;18.418;2022-09-24T05:48:04;15.70;;;14.47;;
24259;SDS011;12384;48.112;18.418;2022-09-24T05:50:32;16.07;;;14.87;;
24259;SDS011;12384;48.112;18.418;2022-09-24T05:53:01;16.33;;;15.03;;
24259;SDS011;12384;48.112;18.418;2022-09-24T05:55:30;15.67;;;14.60;;
24259;SDS011;12384;48.112;18.418;2022-09-24T05:58:02;16.33;;;15.23;;
24259;SDS011;12384;48.112;18.418;2022-09-24T06:00:32;16.83;;;15.53;;
24259;SDS011;12384;48.112;18.418;2022-09-24T06:03:04;18.77;;;17.27;;
24259;SDS011;12384;48.112;18.418;2022-09-24T06:05:33;35.37;;;31.40;;
24259;SDS011;12384;48.112;18.418;2022-09-24T06:08:02;30.97;;;27.97;;
24259;SDS011;12384;48.112;18.418;2022-09-24T06:10:31;20.57;;;18.57;;
24259;SDS011;12384;48.112;18.418;2022-09-24T06:12:59;16.73;;;15.43;;
24259;SDS011;12384;48.112;18.418;2022-09-24T06:15:27;16.80;;;15.60;;
24259;SDS011;12384;48.112;18.418;2022-09-24T06:17:56;17.00;;;15.70;;
24259;SDS011;12384;48.112;18.418;2022-09-24T06:20:26;15.93;;;14.87;;
24259;SDS011;12384;48.112;18.418;2022-09-24T06:22:54;16.33;;;15.13;;
24259;SDS011;12384;48.112;18.418;2022-09-24T06:25:23;16.03;;;14.80;;
24259;SDS011;12384;48.112;18.418;2022-09-24T06:27:52;16.53;;;15.33;;
24259;SDS011;12384;48.112;18.418;2022-09-24T06:30:26;16.00;;;14.80;;
24259;SDS011;12384;48.112;18.418;2022-09-24T06:32:59;16.40;;;15.17;;
24259;SDS011;12384;48.112;18.418;2022-09-24T06:35:29;15.60;;;14.50;;
24259;SDS011;12384;48.112;18.418;2022-09-24T06:37:58;14.97;;;13.97;;
24259;SDS011;12384;48.112;18.418;2022-09-24T06:40:26;14.97;;;13.87;;
24259;SDS011;12384;48.112;18.418;2022-09-24T06:43:02;14.37;;;13.37;;
24259;SDS011;12384;48.112;18.418;2022-09-24T06:45:30;13.83;;;12.73;;
24259;SDS011;12384;48.112;18.418;2022-09-24T06:47:59;13.73;;;12.53;;
24259;SDS011;12384;48.112;18.418;2022-09-24T06:50:31;13.70;;;12.70;;
24259;SDS011;12384;48.112;18.418;2022-09-24T06:53:03;12.93;;;12.00;;
24259;SDS011;12384;48.112;18.418;2022-09-24T06:55:33;12.47;;;11.47;;
24259;SDS011;12384;48.112;18.418;2022-09-24T06:58:02;12.73;;;11.73;;
24259;SDS011;12384;48.112;18.418;2022-09-24T07:00:32;13.47;;;12.47;;
24259;SDS011;12384;48.112;18.418;2022-09-24T07:03:01;13.97;;;12.83;;
24259;SDS011;12384;48.112;18.418;2022-09-24T07:05:31;13.23;;;12.33;;
24259;SDS011;12384;48.112;18.418;2022-09-24T07:08:05;12.90;;;11.93;;
24259;SDS011;12384;48.112;18.418;2022-09-24T07:10:33;13.17;;;12.23;;
24259;SDS011;12384;48.112;18.418;2022-09-24T07:13:01;12.80;;;11.80;;
24259;SDS011;12384;48.112;18.418;2022-09-24T07:15:30;11.03;;;10.33;;
24259;SDS011;12384;48.112;18.418;2022-09-24T07:17:58;12.00;;;11.10;;
24259;SDS011;12384;48.112;18.418;2022-09-24T07:20:26;11.47;;;10.60;;
24259;SDS011;12384;48.112;18.418;2022-09-24T07:22:56;11.53;;;10.73;;
24259;SDS011;12384;48.112;18.418;2022-09-24T07:25:24;11.57;;;10.83;;
24259;SDS011;12384;48.112;18.418;2022-09-24T07:27:52;13.60;;;12.70;;
24259;SDS011;12384;48.112;18.418;2022-09-24T07:30:21;12.90;;;12.10;;
24259;SDS011;12384;48.112;18.418;2022-09-24T07:32:53;12.80;;;12.00;;
24259;SDS011;12384;48.112;18.418;2022-09-24T07:35:22;13.40;;;12.50;;
24259;SDS011;12384;48.112;18.418;2022-09-24T07:37:58;12.87;;;12.00;;
24259;SDS011;12384;48.112;18.418;2022-09-24T07:40:28;13.27;;;12.13;;
24259;SDS011;12384;48.112;18.418;2022-09-24T07:42:58;13.20;;;12.30;;
24259;SDS011;12384;48.112;18.418;2022-09-24T07:45:27;12.73;;;11.93;;
24259;SDS011;12384;48.112;18.418;2022-09-24T07:47:58;12.77;;;11.97;;
24259;SDS011;12384;48.112;18.418;2022-09-24T07:50:28;12.70;;;11.90;;
24259;SDS011;12384;48.112;18.418;2022-09-24T07:52:59;12.20;;;11.30;;
24259;SDS011;12384;48.112;18.418;2022-09-24T07:55:27;11.53;;;10.83;;
24259;SDS011;12384;48.112;18.418;2022-09-24T07:57:56;12.70;;;11.90;;
24259;SDS011;12384;48.112;18.418;2022-09-24T08:00:24;12.17;;;11.40;;
24259;SDS011;12384;48.112;18.418;2022-09-24T08:02:52;12.00;;;11.30;;
24259;SDS011;12384;48.112;18.418;2022-09-24T08:05:22;12.67;;;11.87;;
24259;SDS011;12384;48.112;18.418;2022-09-24T08:07:54;12.23;;;11.43;;
24259;SDS011;12384;48.112;18.418;2022-09-24T08:10:25;12.70;;;11.90;;
24259;SDS011;12384;48.112;18.418;2022-09-24T08:12:54;13.07;;;12.07;;
24259;SDS011;12384;48.112;18.418;2022-09-24T08:15:23;12.27;;;11.47;;
24259;SDS011;12384;48.112;18.418;2022-09-24T08:17:51;11.67;;;10.83;;
24259;SDS011;12384;48.112;18.418;2022-09-24T08:20:40;11.00;;;10.10;;
24259;SDS011;12384;48.112;18.418;2022-09-24T08:23:08;10.30;;;9.70;;
24259;SDS011;12384;48.112;18.418;2022-09-24T08:25:39;10.83;;;10.20;;
24259;SDS011;12384;48.112;18.418;2022-09-24T08:28:07;11.13;;;10.43;;
24259;SDS011;12384;48.112;18.418;2022-09-24T08:30:37;10.93;;;10.20;;
24259;SDS011;12384;48.112;18.418;2022-09-24T08:33:06;10.97;;;10.27;;
24259;SDS011;12384;48.112;18.418;2022-09-24T08:35:36;10.30;;;9.50;;
24259;SDS011;12384;48.112;18.418;2022-09-24T08:38:05;11.77;;;10.77;;
24259;SDS011;12384;48.112;18.418;2022-09-24T08:40:35;11.70;;;10.90;;
24259;SDS011;12384;48.112;18.418;2022-09-24T08:43:13;10.97;;;10.27;;
24259;SDS011;12384;48.112;18.418;2022-09-24T08:45:51;11.03;;;10.30;;
24259;SDS011;12384;48.112;18.418;2022-09-24T08:48:40;10.50;;;9.80;;
24259;SDS011;12384;48.112;18.418;2022-09-24T08:51:13;10.50;;;9.80;;
24259;SDS011;12384;48.112;18.418;2022-09-24T08:53:45;10.67;;;9.77;;
24259;SDS011;12384;48.112;18.418;2022-09-24T08:56:24;10.37;;;9.57;;
24259;SDS011;12384;48.112;18.418;2022-09-24T08:58:55;11.07;;;10.37;;
24259;SDS011;12384;48.112;18.418;2022-09-24T09:01:29;11.10;;;10.40;;
24259;SDS011;12384;48.112;18.418;2022-09-24T09:04:03;11.50;;;10.80;;
24259;SDS011;12384;48.112;18.418;2022-09-24T09:06:50;10.47;;;9.77;;
24259;SDS011;12384;48.112;18.418;2022-09-24T09:09:31;10.77;;;9.97;;
24259;SDS011;12384;48.112;18.418;2022-09-24T09:12:10;11.37;;;10.67;;
24259;SDS011;12384;48.112;18.418;2022-09-24T09:14:44;11.70;;;10.53;;
24259;SDS011;12384;48.112;18.418;2022-09-24T09:17:25;11.90;;;11.00;;
24259;SDS011;12384;48.112;18.418;2022-09-24T09:19:58;11.63;;;10.83;;
24259;SDS011;12384;48.112;18.418;2022-09-24T09:22:31;10.97;;;10.07;;
24259;SDS011;12384;48.112;18.418;2022-09-24T09:25:09;9.70;;;9.10;;
24259;SDS011;12384;48.112;18.418;2022-09-24T09:27:45;10.67;;;9.93;;
24259;SDS011;12384;48.112;18.418;2022-09-24T09:30:26;9.30;;;8.70;;
24259;SDS011;12384;48.112;18.418;2022-09-24T09:33:18;9.90;;;8.97;;
24259;SDS011;12384;48.112;18.418;2022-09-24T09:36:16;9.87;;;9.20;;
24259;SDS011;12384;48.112;18.418;2022-09-24T09:39:03;11.40;;;10.30;;
24259;SDS011;12384;48.112;18.418;2022-09-24T09:41:44;10.80;;;9.97;;
24259;SDS011;12384;48.112;18.418;2022-09-24T09:44:18;9.50;;;8.90;;
24259;SDS011;12384;48.112;18.418;2022-09-24T09:46:54;9.47;;;8.77;;
24259;SDS011;12384;48.112;18.418;2022-09-24T09:49:31;9.33;;;8.73;;
24259;SDS011;12384;48.112;18.418;2022-09-24T09:52:03;9.00;;;8.30;;
24259;SDS011;12384;48.112;18.418;2022-09-24T09:54:40;9.10;;;8.50;;
24259;SDS011;12384;48.112;18.418;2022-09-24T09:57:11;9.40;;;8.80;;
24259;SDS011;12384;48.112;18.418;2022-09-24T09:59:44;9.40;;;8.73;;
24259;SDS011;12384;48.112;18.418;2022-09-24T10:02:19;9.30;;;8.50;;
24259;SDS011;12384;48.112;18.418;2022-09-24T10:04:53;8.70;;;8.10;;
24259;SDS011;12384;48.112;18.418;2022-09-24T10:07:24;8.57;;;8.07;;
24259;SDS011;12384;48.112;18.418;2022-09-24T10:09:59;8.80;;;8.10;;
24259;SDS011;12384;48.112;18.418;2022-09-24T10:12:30;9.00;;;8.30;;
24259;SDS011;12384;48.112;18.418;2022-09-24T10:14:59;8.97;;;8.27;;
24259;SDS011;12384;48.112;18.418;2022-09-24T10:17:32;9.50;;;8.77;;
24259;SDS011;12384;48.112;18.418;2022-09-24T10:20:06;9.90;;;9.20;;
24259;SDS011;12384;48.112;18.418;2022-09-24T10:22:44;9.87;;;9.23;;
24259;SDS011;12384;48.112;18.418;2022-09-24T10:25:16;9.67;;;8.97;;
24259;SDS011;12384;48.112;18.418;2022-09-24T10:27:47;9.07;;;8.50;;
24259;SDS011;12384;48.112;18.418;2022-09-24T10:30:15;9.13;;;8.53;;
24259;SDS011;12384;48.112;18.418;2022-09-24T10:33:03;8.80;;;8.20;;
24259;SDS011;12384;48.112;18.418;2022-09-24T10:35:35;9.43;;;8.73;;
24259;SDS011;12384;48.112;18.418;2022-09-24T10:38:13;9.13;;;8.63;;
24259;SDS011;12384;48.112;18.418;2022-09-24T10:40:44;9.32;;;8.82;;
24259;SDS011;12384;48.112;18.418;2022-09-24T10:43:15;9.55;;;8.65;;
24259;SDS011;12384;48.112;18.418;2022-09-24T10:45:51;8.57;;;8.07;;
24259;SDS011;12384;48.112;18.418;2022-09-24T10:48:38;9.13;;;8.43;;
24259;SDS011;12384;48.112;18.418;2022-09-24T10:51:18;9.23;;;8.63;;
24259;SDS011;12384;48.112;18.418;2022-09-24T10:56:49;9.97;;;9.27;;
24259;SDS011;12384;48.112;18.418;2022-09-24T10:59:26;9.63;;;9.03;;
24259;SDS011;12384;48.112;18.418;2022-09-24T11:02:22;10.23;;;9.43;;
24259;SDS011;12384;48.112;18.418;2022-09-24T11:05:14;9.75;;;8.85;;
24259;SDS011;12384;48.112;18.418;2022-09-24T11:07:52;9.50;;;9.00;;
24259;SDS011;12384;48.112;18.418;2022-09-24T11:10:29;9.48;;;8.70;;
24259;SDS011;12384;48.112;18.418;2022-09-24T11:13:19;9.35;;;8.65;;
24259;SDS011;12384;48.112;18.418;2022-09-24T11:16:07;8.23;;;7.63;;
24259;SDS011;12384;48.112;18.418;2022-09-24T11:18:55;9.50;;;8.80;;
24259;SDS011;12384;48.112;18.418;2022-09-24T11:21:34;9.10;;;8.40;;
24259;SDS011;12384;48.112;18.418;2022-09-24T11:24:32;9.03;;;8.43;;
24259;SDS011;12384;48.112;18.418;2022-09-24T11:27:27;8.43;;;7.82;;
24259;SDS011;12384;48.112;18.418;2022-09-24T11:30:07;9.18;;;8.43;;
24259;SDS011;12384;48.112;18.418;2022-09-24T11:32:42;10.13;;;9.32;;
24259;SDS011;12384;48.112;18.418;2022-09-24T11:35:28;8.80;;;8.20;;
24259;SDS011;12384;48.112;18.418;2022-09-24T11:38:07;9.05;;;8.45;;
24259;SDS011;12384;48.112;18.418;2022-09-24T11:40:41;9.15;;;8.55;;
24259;SDS011;12384;48.112;18.418;2022-09-24T11:43:30;12.38;;;10.00;;
24259;SDS011;12384;48.112;18.418;2022-09-24T11:46:16;9.30;;;8.63;;
24259;SDS011;12384;48.112;18.418;2022-09-24T11:48:55;9.70;;;9.00;;
24259;SDS011;12384;48.112;18.418;2022-09-24T11:51:48;8.88;;;8.30;;
24259;SDS011;12384;48.112;18.418;2022-09-24T11:54:23;10.35;;;9.48;;
24259;SDS011;12384;48.112;18.418;2022-09-24T11:57:15;9.60;;;8.90;;
24259;SDS011;12384;48.112;18.418;2022-09-24T11:59:51;9.63;;;9.03;;
24259;SDS011;12384;48.112;18.418;2022-09-24T12:02:25;9.40;;;8.80;;
24259;SDS011;12384;48.112;18.418;2022-09-24T12:04:58;9.40;;;8.80;;
24259;SDS011;12384;48.112;18.418;2022-09-24T12:07:32;10.30;;;9.60;;
24259;SDS011;12384;48.112;18.418;2022-09-24T12:10:14;9.20;;;8.60;;
24259;SDS011;12384;48.112;18.418;2022-09-24T12:12:52;9.23;;;8.63;;
24259;SDS011;12384;48.112;18.418;2022-09-24T12:15:29;10.23;;;9.45;;
24259;SDS011;12384;48.112;18.418;2022-09-24T12:18:08;9.57;;;9.00;;
24259;SDS011;12384;48.112;18.418;2022-09-24T12:20:44;9.73;;;9.13;;
24259;SDS011;12384;48.112;18.418;2022-09-24T12:23:18;10.02;;;9.30;;
24259;SDS011;12384;48.112;18.418;2022-09-24T12:25:55;10.43;;;9.73;;
24259;SDS011;12384;48.112;18.418;2022-09-24T12:28:27;10.30;;;9.60;;
24259;SDS011;12384;48.112;18.418;2022-09-24T12:31:21;10.40;;;9.70;;
24259;SDS011;12384;48.112;18.418;2022-09-24T12:34:15;10.17;;;9.53;;
24259;SDS011;12384;48.112;18.418;2022-09-24T12:36:56;9.30;;;8.70;;
24259;SDS011;12384;48.112;18.418;2022-09-24T12:39:30;10.37;;;9.47;;
24259;SDS011;12384;48.112;18.418;2022-09-24T12:42:06;9.40;;;8.80;;
24259;SDS011;12384;48.112;18.418;2022-09-24T12:44:39;9.50;;;8.80;;
24259;SDS011;12384;48.112;18.418;2022-09-24T12:47:14;12.00;;;8.90;;
24259;SDS011;12384;48.112;18.418;2022-09-24T12:49:51;9.87;;;9.20;;
24259;SDS011;12384;48.112;18.418;2022-09-24T12:52:23;10.20;;;9.50;;
24259;SDS011;12384;48.112;18.418;2022-09-24T12:54:54;10.93;;;10.13;;
24259;SDS011;12384;48.112;18.418;2022-09-24T12:57:28;10.73;;;10.03;;
24259;SDS011;12384;48.112;18.418;2022-09-24T13:00:01;11.53;;;10.83;;
24259;SDS011;12384;48.112;18.418;2022-09-24T13:02:42;11.37;;;10.53;;
24259;SDS011;12384;48.112;18.418;2022-09-24T13:05:16;11.23;;;10.33;;
24259;SDS011;12384;48.112;18.418;2022-09-24T13:07:54;13.17;;;11.80;;
24259;SDS011;12384;48.112;18.418;2022-09-24T13:10:26;11.23;;;10.43;;
24259;SDS011;12384;48.112;18.418;2022-09-24T13:12:57;10.00;;;9.40;;
24259;SDS011;12384;48.112;18.418;2022-09-24T13:15:33;11.03;;;10.33;;
24259;SDS011;12384;48.112;18.418;2022-09-24T13:18:17;11.63;;;10.77;;
24259;SDS011;12384;48.112;18.418;2022-09-24T13:20:56;10.50;;;9.80;;
24259;SDS011;12384;48.112;18.418;2022-09-24T13:23:31;13.93;;;12.70;;
24259;SDS011;12384;48.112;18.418;2022-09-24T13:26:31;14.80;;;13.30;;
24259;SDS011;12384;48.112;18.418;2022-09-24T13:29:03;11.30;;;10.50;;
24259;SDS011;12384;48.112;18.418;2022-09-24T13:31:34;9.83;;;9.23;;
24259;SDS011;12384;48.112;18.418;2022-09-24T13:34:17;11.97;;;10.97;;
24259;SDS011;12384;48.112;18.418;2022-09-24T13:36:51;11.93;;;10.87;;
24259;SDS011;12384;48.112;18.418;2022-09-24T13:39:25;14.27;;;12.77;;
24259;SDS011;12384;48.112;18.418;2022-09-24T13:41:59;10.93;;;10.13;;
24259;SDS011;12384;48.112;18.418;2022-09-24T13:44:34;11.40;;;10.50;;
24259;SDS011;12384;48.112;18.418;2022-09-24T13:47:10;9.57;;;8.97;;
24259;SDS011;12384;48.112;18.418;2022-09-24T13:49:43;9.33;;;8.83;;
24259;SDS011;12384;48.112;18.418;2022-09-24T13:52:14;8.73;;;8.30;;
24259;SDS011;12384;48.112;18.418;2022-09-24T13:54:50;9.77;;;8.97;;
24259;SDS011;12384;48.112;18.418;2022-09-24T13:57:22;8.30;;;7.90;;
24259;SDS011;12384;48.112;18.418;2022-09-24T14:02:51;9.13;;;8.45;;
24259;SDS011;12384;48.112;18.418;2022-09-24T14:05:22;7.88;;;7.38;;
24259;SDS011;12384;48.112;18.418;2022-09-24T14:07:56;8.45;;;7.95;;
24259;SDS011;12384;48.112;18.418;2022-09-24T14:10:28;11.50;;;10.60;;
24259;SDS011;12384;48.112;18.418;2022-09-24T14:12:58;9.13;;;8.43;;
24259;SDS011;12384;48.112;18.418;2022-09-24T14:15:47;10.07;;;9.38;;
24259;SDS011;12384;48.112;18.418;2022-09-24T14:18:17;9.68;;;8.93;;
24259;SDS011;12384;48.112;18.418;2022-09-24T14:20:46;8.30;;;7.80;;
24259;SDS011;12384;48.112;18.418;2022-09-24T14:23:20;7.93;;;7.33;;
24259;SDS011;12384;48.112;18.418;2022-09-24T14:25:53;7.30;;;6.80;;
24259;SDS011;12384;48.112;18.418;2022-09-24T14:28:22;8.98;;;8.38;;
24259;SDS011;12384;48.112;18.418;2022-09-24T14:30:53;9.68;;;9.07;;
24259;SDS011;12384;48.112;18.418;2022-09-24T14:33:23;10.30;;;9.60;;
24259;SDS011;12384;48.112;18.418;2022-09-24T14:35:55;10.88;;;10.18;;
24259;SDS011;12384;48.112;18.418;2022-09-24T14:38:26;9.13;;;8.40;;
24259;SDS011;12384;48.112;18.418;2022-09-24T14:40:57;9.53;;;8.90;;
24259;SDS011;12384;48.112;18.418;2022-09-24T14:43:29;9.50;;;8.90;;
24259;SDS011;12384;48.112;18.418;2022-09-24T14:46:04;10.37;;;9.60;;
24259;SDS011;12384;48.112;18.418;2022-09-24T14:48:35;8.80;;;8.30;;
24259;SDS011;12384;48.112;18.418;2022-09-24T14:51:03;8.93;;;8.43;;
24259;SDS011;12384;48.112;18.418;2022-09-24T14:53:32;10.13;;;9.53;;
24259;SDS011;12384;48.112;18.418;2022-09-24T14:56:16;9.27;;;8.67;;
24259;SDS011;12384;48.112;18.418;2022-09-24T14:58:47;10.30;;;9.40;;
24259;SDS011;12384;48.112;18.418;2022-09-24T15:01:17;11.10;;;10.43;;
24259;SDS011;12384;48.112;18.418;2022-09-24T15:03:48;11.63;;;10.93;;
24259;SDS011;12384;48.112;18.418;2022-09-24T15:06:19;10.40;;;9.70;;